Terminal Aerodrome Forecast
Issued by NWS

Home | Current Version | Previous Version | Text Only | Print | Product List | Glossary On
Versions: 1 2 3 4 5 6 7 8 9 10 11 12 13 14 15 16 17 18 19 20 21 22 23 24 25
122
FTUS41 KBUF 240824 AAA
TAFJHW
TAF AMD
KJHW 240824Z 2408/2506 VRB03KT 4SM BR SCT060
      TEMPO 2408/2412 1SM BR BKN003
     FM241300 VRB03KT P6SM SCT250
     FM241500 31006KT P6SM SCT040
     FM242100 32008KT P6SM BKN040
     FM250300 VRB03KT P6SM BKN025
      AMD LTD TO CLD VIS AND WIND=

USA.gov is the U.S. government's official web portal to all federal, state and local government web resources and services.